createdAt,value
2019-02-26T00:01:59.920Z,51.22
2019-02-26T00:05:05.671Z,50.53
2019-02-26T00:08:11.468Z,51.07
2019-02-26T00:11:17.246Z,50.82
2019-02-26T00:14:24.854Z,50.13
2019-02-26T00:17:30.540Z,50.35
2019-02-26T00:20:37.398Z,49.03
2019-02-26T00:23:44.381Z,49.13
2019-02-26T00:26:51.248Z,48.87
2019-02-26T00:29:57.195Z,48.88
2019-02-26T00:33:05.176Z,48.36
2019-02-26T00:36:11.229Z,48.40
2019-02-26T00:39:17.930Z,48.45
2019-02-26T00:42:24.345Z,47.89
2019-02-26T00:45:32.325Z,47.99
2019-02-26T00:48:40.780Z,47.47
2019-02-26T00:51:48.293Z,47.52
2019-02-26T00:54:57.608Z,47.24
2019-02-26T00:58:03.291Z,47.69
2019-02-26T01:01:12.230Z,47.89
2019-02-26T01:04:17.445Z,47.47
2019-02-26T01:07:23.923Z,47.12
2019-02-26T01:10:30.876Z,46.94
2019-02-26T01:13:36.738Z,46.04
2019-02-26T01:16:43.790Z,46.69
2019-02-26T01:19:50.195Z,46.87
2019-02-26T01:22:55.966Z,46.74
2019-02-26T01:26:01.735Z,46.65
2019-02-26T01:29:07.609Z,46.27
2019-02-26T01:32:15.605Z,46.46
2019-02-26T01:35:21.033Z,46.70
2019-02-26T01:38:26.807Z,46.96
2019-02-26T01:41:32.589Z,47.98
2019-02-26T01:44:39.907Z,48.50
2019-02-26T01:47:48.194Z,48.80
2019-02-26T01:50:54.488Z,49.68
2019-02-26T01:54:00.747Z,49.95
2019-02-26T01:57:08.569Z,49.38
2019-02-26T02:00:15.450Z,49.05
2019-02-26T02:03:23.005Z,48.18
2019-02-26T02:06:30.364Z,47.71
2019-02-26T02:09:36.455Z,47.41
2019-02-26T02:12:42.210Z,47.18
2019-02-26T02:15:48.019Z,47.30
2019-02-26T02:18:55.343Z,46.95
2019-02-26T02:22:01.247Z,46.54
2019-02-26T02:25:07.923Z,45.57
2019-02-26T02:28:13.701Z,45.48
2019-02-26T02:31:22.017Z,45.82
2019-02-26T02:34:29.570Z,46.01
2019-02-26T02:37:34.513Z,45.96
2019-02-26T02:40:42.991Z,46.25
2019-02-26T02:43:47.768Z,47.11
2019-02-26T02:46:53.533Z,47.10
2019-02-26T02:49:59.298Z,47.17
2019-02-26T02:53:05.219Z,47.39
2019-02-26T02:56:12.898Z,47.46
2019-02-26T02:59:18.477Z,47.70
2019-02-26T03:02:24.287Z,47.28
2019-02-26T03:05:32.098Z,46.27
2019-02-26T03:08:39.394Z,45.34
2019-02-26T03:11:46.481Z,45.41
2019-02-26T03:14:52.463Z,45.64
2019-02-26T03:17:58.208Z,45.20
2019-02-26T03:21:04.873Z,45.73
2019-02-26T03:24:10.791Z,45.56
2019-02-26T03:27:16.588Z,45.83
2019-02-26T03:30:31.941Z,45.87
2019-02-26T03:33:30.043Z,46.07
2019-02-26T03:36:38.265Z,46.17
2019-02-26T03:39:43.521Z,46.52
2019-02-26T03:42:49.266Z,46.84
2019-02-26T03:45:55.061Z,46.66
2019-02-26T03:49:02.703Z,46.48
2019-02-26T03:52:08.363Z,46.26
2019-02-26T03:55:17.882Z,46.54
2019-02-26T03:58:21.878Z,46.59
2019-02-26T04:01:27.871Z,46.81
2019-02-26T04:04:33.805Z,47.16
2019-02-26T04:07:39.804Z,46.64
2019-02-26T04:10:47.570Z,46.11
2019-02-26T04:13:54.556Z,45.95
2019-02-26T04:17:03.020Z,46.39
2019-02-26T04:20:09.202Z,46.97
2019-02-26T04:23:18.712Z,46.84
2019-02-26T04:26:48.867Z,46.95
2019-02-26T04:30:45.289Z,47.11
2019-02-26T04:34:18.514Z,46.94
2019-02-26T04:38:32.879Z,46.64
2019-02-26T04:41:49.897Z,46.52
2019-02-26T04:45:26.772Z,46.57
2019-02-26T04:48:34.632Z,46.62
2019-02-26T04:51:42.684Z,46.46
2019-02-26T04:54:48.072Z,46.54
2019-02-26T04:57:56.143Z,46.42
2019-02-26T05:01:02.013Z,46.67
2019-02-26T05:04:07.823Z,46.59
2019-02-26T05:07:16.320Z,46.45
2019-02-26T05:10:24.265Z,47.01
2019-02-26T05:13:32.149Z,47.35
2019-02-26T05:16:40.187Z,47.50
2019-02-26T05:19:48.268Z,47.15
2019-02-26T05:22:58.461Z,47.13
2019-02-26T05:26:05.225Z,46.96
2019-02-26T05:29:13.978Z,47.05
2019-02-26T05:32:21.801Z,47.40
2019-02-26T05:35:27.231Z,47.34
2019-02-26T05:38:34.872Z,47.17
2019-02-26T05:41:40.817Z,47.20
2019-02-26T05:44:46.650Z,47.06
2019-02-26T05:47:54.739Z,46.53
2019-02-26T05:51:02.954Z,46.66
2019-02-26T05:54:08.173Z,46.55
2019-02-26T05:57:27.208Z,46.06
2019-02-26T06:00:26.336Z,46.16
2019-02-26T06:03:30.177Z,45.88
2019-02-26T06:06:35.936Z,45.78
2019-02-26T06:09:42.698Z,45.38
2019-02-26T06:12:48.493Z,44.75
2019-02-26T06:15:55.279Z,44.23
2019-02-26T06:19:01.759Z,43.38
2019-02-26T06:22:11.590Z,43.21
2019-02-26T06:25:22.790Z,43.00
2019-02-26T06:28:23.732Z,42.57
2019-02-26T06:31:29.641Z,42.37
2019-02-26T06:34:35.432Z,42.28
2019-02-26T06:37:41.346Z,42.15
2019-02-26T06:40:48.976Z,41.92
2019-02-26T06:43:55.113Z,41.77
2019-02-26T06:47:02.616Z,41.50
2019-02-26T06:50:11.127Z,41.73
2019-02-26T06:53:20.977Z,40.79
2019-02-26T06:56:24.261Z,41.23
2019-02-26T06:59:33.799Z,40.40
2019-02-26T07:02:38.523Z,40.15
2019-02-26T07:05:46.467Z,39.76
2019-02-26T07:08:53.481Z,39.16
2019-02-26T07:11:59.588Z,38.31
2019-02-26T07:15:06.048Z,38.13
2019-02-26T07:18:16.354Z,37.06
2019-02-26T07:21:19.317Z,36.79
2019-02-26T07:24:27.045Z,36.95
2019-02-26T07:27:34.189Z,37.09
2019-02-26T07:30:42.288Z,37.53
2019-02-26T07:33:47.633Z,38.03
2019-02-26T07:36:53.546Z,37.78
2019-02-26T07:39:59.334Z,37.08
2019-02-26T07:43:09.106Z,35.86
2019-02-26T07:46:14.600Z,35.61
2019-02-26T07:49:20.282Z,34.73
2019-02-26T07:52:28.304Z,34.54
2019-02-26T07:55:35.361Z,35.43
2019-02-26T07:58:42.965Z,35.23
2019-02-26T08:01:49.743Z,34.26
2019-02-26T08:04:55.638Z,34.82
2019-02-26T08:08:01.409Z,34.47
2019-02-26T08:11:07.185Z,34.46
2019-02-26T08:14:14.340Z,34.78
2019-02-26T08:17:20.526Z,34.33
2019-02-26T08:20:27.906Z,34.80
2019-02-26T08:23:33.795Z,34.45
2019-02-26T08:26:40.479Z,34.57
2019-02-26T08:29:47.108Z,34.41
2019-02-26T08:32:54.261Z,33.92
2019-02-26T08:36:00.458Z,33.37
2019-02-26T08:39:08.445Z,33.33
2019-02-26T08:42:15.134Z,33.51
2019-02-26T08:45:23.560Z,32.96
2019-02-26T08:48:28.778Z,32.61
2019-02-26T08:51:34.544Z,32.53
2019-02-26T08:54:40.321Z,32.58
2019-02-26T08:57:46.118Z,32.40
2019-02-26T09:00:51.880Z,33.19
2019-02-26T09:03:58.952Z,31.81
2019-02-26T09:07:05.363Z,32.67
2019-02-26T09:10:13.076Z,32.07
2019-02-26T09:13:19.224Z,31.77
2019-02-26T09:16:27.666Z,31.27
2019-02-26T09:19:35.438Z,31.03
2019-02-26T09:22:45.714Z,30.27
2019-02-26T09:25:51.538Z,30.57
2019-02-26T09:28:57.153Z,30.18
2019-02-26T09:32:06.723Z,29.86
2019-02-26T09:35:12.103Z,30.41
2019-02-26T09:38:20.085Z,30.68
2019-02-26T09:41:25.342Z,30.80
2019-02-26T09:44:33.209Z,31.09
2019-02-26T09:47:38.575Z,31.06
2019-02-26T09:50:46.334Z,29.64
2019-02-26T09:53:54.805Z,29.71
2019-02-26T09:57:00.489Z,30.33
2019-02-26T10:00:09.735Z,30.02
2019-02-26T10:03:15.502Z,29.44
2019-02-26T10:06:23.476Z,29.35
2019-02-26T10:09:28.747Z,29.09
2019-02-26T10:12:35.105Z,29.55
2019-02-26T10:15:42.805Z,28.97
2019-02-26T10:18:51.402Z,28.95
2019-02-26T10:21:58.117Z,29.65
2019-02-26T10:25:04.892Z,28.97
2019-02-26T10:28:11.714Z,29.51
2019-02-26T10:31:18.105Z,29.55
2019-02-26T10:34:28.143Z,29.58
2019-02-26T10:37:33.642Z,29.23
2019-02-26T10:40:50.739Z,29.16
2019-02-26T10:43:46.451Z,28.73
2019-02-26T10:46:52.223Z,28.95
2019-02-26T10:49:58.007Z,28.82
2019-02-26T10:53:09.647Z,28.53
2019-02-26T10:56:11.339Z,28.47
2019-02-26T10:59:19.572Z,28.90
2019-02-26T11:02:27.890Z,28.67
2019-02-26T11:05:33.215Z,28.81
2019-02-26T11:08:39.071Z,27.87
2019-02-26T11:11:44.943Z,28.31
2019-02-26T11:14:50.724Z,27.85
2019-02-26T11:17:56.496Z,27.69
2019-02-26T11:21:02.287Z,28.64
2019-02-26T11:24:08.743Z,29.64
2019-02-26T11:27:17.206Z,30.34
2019-02-26T11:30:25.870Z,29.98
2019-02-26T11:33:30.678Z,29.68
2019-02-26T11:36:38.372Z,29.92
2019-02-26T11:39:43.945Z,28.10
2019-02-26T11:42:51.234Z,28.04
2019-02-26T11:45:59.174Z,28.27
2019-02-26T11:49:04.796Z,29.08
2019-02-26T11:52:10.576Z,29.42
2019-02-26T11:55:16.725Z,29.19
2019-02-26T11:58:24.252Z,29.16
2019-02-26T12:01:32.217Z,28.97
2019-02-26T12:04:37.719Z,29.68
2019-02-26T12:07:43.570Z,29.84
2019-02-26T12:10:52.192Z,29.46
2019-02-26T12:13:56.942Z,28.56
2019-02-26T12:17:02.748Z,28.28
2019-02-26T12:20:12.074Z,27.53
2019-02-26T12:23:19.914Z,27.40
2019-02-26T12:26:27.967Z,27.88
2019-02-26T12:29:33.800Z,28.79
2019-02-26T12:32:41.298Z,29.13
2019-02-26T12:35:47.029Z,29.83
2019-02-26T12:38:53.670Z,30.08
2019-02-26T12:42:01.440Z,30.27
2019-02-26T12:45:10.086Z,30.36
2019-02-26T12:48:19.144Z,30.99
2019-02-26T12:51:25.264Z,31.35
2019-02-26T12:54:33.271Z,31.37
2019-02-26T12:57:38.081Z,31.45
2019-02-26T13:00:43.842Z,31.13
2019-02-26T13:06:57.106Z,31.37
2019-02-26T13:10:04.116Z,31.94
2019-02-26T13:13:11.386Z,31.46
2019-02-26T13:16:17.131Z,31.08
2019-02-26T13:19:29.220Z,31.05
2019-02-26T13:22:30.412Z,30.72
2019-02-26T13:25:36.305Z,31.00
2019-02-26T13:28:46.729Z,31.37
2019-02-26T13:31:56.331Z,31.31
2019-02-26T13:35:00.782Z,31.93
2019-02-26T13:38:04.747Z,31.59
2019-02-26T13:44:18.240Z,31.52
2019-02-26T13:47:25.217Z,31.95
2019-02-26T13:50:31.270Z,32.32
2019-02-26T13:53:37.045Z,32.29
2019-02-26T13:56:42.828Z,31.90
2019-02-26T13:59:48.613Z,31.12
2019-02-26T14:02:54.485Z,31.25
2019-02-26T14:06:00.272Z,31.65
2019-02-26T14:09:07.896Z,32.47
2019-02-26T14:12:14.483Z,32.39
2019-02-26T14:15:22.230Z,32.59
2019-02-26T14:18:28.314Z,32.95
2019-02-26T14:21:34.076Z,32.84
2019-02-26T14:24:39.841Z,33.19
2019-02-26T14:27:45.719Z,33.67
2019-02-26T14:30:51.799Z,33.51
2019-02-26T14:33:57.571Z,33.32
2019-02-26T14:37:03.407Z,33.36
2019-02-26T14:40:11.363Z,33.74
2019-02-26T14:43:17.157Z,33.94
2019-02-26T14:46:22.932Z,34.28
2019-02-26T14:49:28.851Z,33.79
2019-02-26T14:52:34.714Z,32.38
2019-02-26T14:55:40.566Z,32.56
2019-02-26T14:58:46.345Z,32.87
2019-02-26T15:01:52.124Z,33.29
2019-02-26T15:04:57.959Z,33.92
2019-02-26T15:08:03.772Z,33.35
2019-02-26T15:11:09.533Z,32.97
2019-02-26T15:14:15.578Z,32.43
2019-02-26T15:17:21.379Z,31.85
2019-02-26T15:20:28.585Z,31.88
2019-02-26T15:23:34.398Z,32.41
2019-02-26T15:26:40.202Z,33.16
2019-02-26T15:29:47.437Z,33.68
2019-02-26T15:32:55.800Z,34.02
2019-02-26T15:36:02.045Z,34.35
2019-02-26T15:39:09.243Z,34.26
2019-02-26T15:42:15.140Z,34.66
2019-02-26T15:45:23.946Z,33.82
2019-02-26T15:48:29.371Z,33.26
2019-02-26T15:51:35.126Z,33.50
2019-02-26T15:54:40.904Z,33.92
2019-02-26T15:57:46.739Z,34.11
2019-02-26T16:00:52.600Z,34.15
2019-02-26T16:03:58.389Z,34.60
2019-02-26T16:07:04.286Z,34.85
2019-02-26T16:10:10.995Z,34.50
2019-02-26T16:13:16.871Z,34.22
2019-02-26T16:16:22.655Z,34.37
2019-02-26T16:19:28.459Z,34.07
2019-02-26T16:22:37.361Z,33.55
2019-02-26T16:25:45.562Z,33.65
2019-02-26T16:28:51.302Z,34.22
2019-02-26T16:31:57.357Z,34.72
2019-02-26T16:35:03.135Z,35.38
2019-02-26T16:38:09.028Z,35.69
2019-02-26T16:41:15.019Z,36.33
2019-02-26T16:44:22.543Z,36.52
2019-02-26T16:47:28.421Z,36.33
2019-02-26T16:50:34.411Z,36.36
2019-02-26T16:53:41.286Z,36.55
2019-02-26T16:56:47.198Z,36.44
2019-02-26T16:59:52.969Z,36.28
2019-02-26T17:03:00.772Z,36.66
2019-02-26T17:06:06.826Z,36.69
2019-02-26T17:09:12.991Z,36.79
2019-02-26T17:12:18.849Z,36.51
2019-02-26T17:15:27.075Z,36.64
2019-02-26T17:18:33.035Z,36.86
2019-02-26T17:21:38.803Z,36.81
2019-02-26T17:24:44.621Z,36.61
2019-02-26T17:27:50.719Z,36.48
2019-02-26T17:30:57.763Z,36.78
2019-02-26T17:34:04.450Z,36.98
2019-02-26T17:37:10.263Z,37.07
2019-02-26T17:40:17.563Z,36.78
2019-02-26T17:43:25.193Z,37.08
2019-02-26T17:46:31.025Z,37.16
2019-02-26T17:49:36.913Z,36.84
2019-02-26T17:52:42.672Z,36.77
2019-02-26T17:55:48.577Z,36.79
2019-02-26T17:58:54.380Z,37.17
2019-02-26T18:02:00.292Z,37.40
2019-02-26T18:05:06.673Z,37.55
2019-02-26T18:08:16.758Z,37.57
2019-02-26T18:11:23.367Z,37.87
2019-02-26T18:14:27.545Z,37.70
2019-02-26T18:17:33.344Z,37.87
2019-02-26T18:20:40.716Z,37.83
2019-02-26T18:23:46.663Z,37.99
2019-02-26T18:26:52.609Z,37.79
2019-02-26T18:29:58.378Z,37.75
2019-02-26T18:33:04.654Z,37.61
2019-02-26T18:36:10.603Z,38.01
2019-02-26T18:39:16.547Z,37.94
2019-02-26T18:42:22.535Z,37.34
2019-02-26T18:45:29.049Z,37.25
2019-02-26T18:48:35.091Z,37.24
2019-02-26T18:51:40.970Z,37.76
2019-02-26T18:54:46.748Z,37.70
2019-02-26T18:57:54.398Z,38.14
2019-02-26T19:01:00.111Z,38.54
2019-02-26T19:04:06.259Z,38.76
2019-02-26T19:07:12.028Z,38.87
2019-02-26T19:10:20.756Z,39.04
2019-02-26T19:13:26.710Z,38.98
2019-02-26T19:16:32.477Z,38.61
2019-02-26T19:19:39.715Z,38.34
2019-02-26T19:22:51.860Z,37.99
2019-02-26T19:25:58.371Z,37.68
2019-02-26T19:29:04.162Z,37.59
2019-02-26T19:32:10.101Z,37.54
2019-02-26T19:35:16.019Z,37.52
2019-02-26T19:38:21.812Z,37.85
2019-02-26T19:41:27.821Z,37.63
2019-02-26T19:44:35.891Z,38.23
2019-02-26T19:47:41.294Z,38.27
2019-02-26T19:50:48.711Z,38.66
2019-02-26T19:53:54.564Z,39.13
2019-02-26T19:57:00.386Z,39.10
2019-02-26T20:00:07.214Z,39.24
2019-02-26T20:03:14.566Z,40.05
2019-02-26T20:06:23.270Z,39.60
2019-02-26T20:09:29.034Z,40.33
2019-02-26T20:12:34.799Z,40.34
2019-02-26T20:15:40.584Z,40.52
2019-02-26T20:18:46.479Z,40.49
2019-02-26T20:21:54.305Z,40.32
2019-02-26T20:25:01.831Z,40.11
2019-02-26T20:28:08.634Z,40.05
2019-02-26T20:31:14.440Z,40.80
2019-02-26T20:34:20.335Z,40.73
2019-02-26T20:37:26.147Z,40.61
2019-02-26T20:40:31.999Z,40.96
2019-02-26T20:43:37.848Z,41.05
2019-02-26T20:46:43.633Z,41.55
2019-02-26T20:49:49.437Z,41.33
2019-02-26T20:52:55.209Z,41.84
2019-02-26T20:56:01.137Z,42.52
2019-02-26T20:59:08.199Z,42.13
2019-02-26T21:02:14.092Z,41.62
2019-02-26T21:05:20.011Z,41.57
2019-02-26T21:08:26.158Z,42.02
2019-02-26T21:11:32.167Z,41.93
2019-02-26T21:14:41.083Z,42.25
2019-02-26T21:17:46.928Z,42.27
2019-02-26T21:20:52.824Z,42.73
2019-02-26T21:24:00.917Z,42.60
2019-02-26T21:27:06.506Z,42.80
2019-02-26T21:30:14.589Z,42.63
2019-02-26T21:33:20.552Z,42.88
2019-02-26T21:36:27.903Z,42.89
2019-02-26T21:39:34.071Z,43.18
2019-02-26T21:42:39.867Z,43.37
2019-02-26T21:45:49.170Z,43.31
2019-02-26T21:48:53.114Z,43.64
2019-02-26T21:51:59.038Z,43.47
2019-02-26T21:55:05.171Z,43.33
2019-02-26T21:58:11.122Z,43.76
2019-02-26T22:01:16.879Z,43.79
2019-02-26T22:04:22.827Z,44.08
2019-02-26T22:07:28.662Z,43.49
2019-02-26T22:10:34.484Z,43.85
2019-02-26T22:13:40.253Z,43.28
2019-02-26T22:16:46.100Z,42.89
2019-02-26T22:19:51.908Z,43.11
2019-02-26T22:23:00.175Z,43.32
2019-02-26T22:26:05.227Z,42.73
2019-02-26T22:29:12.934Z,42.95
2019-02-26T22:32:18.520Z,42.79
2019-02-26T22:35:25.937Z,42.87
2019-02-26T22:38:31.787Z,42.84
2019-02-26T22:41:37.542Z,42.72
2019-02-26T22:44:43.293Z,43.06
2019-02-26T22:47:50.146Z,43.72
2019-02-26T22:50:59.529Z,44.37
2019-02-26T22:54:03.394Z,45.28
2019-02-26T22:57:09.149Z,44.97
2019-02-26T23:01:14.982Z,45.01
2019-02-26T23:04:25.280Z,44.72
2019-02-26T23:07:31.175Z,44.67
2019-02-26T23:10:37.160Z,44.35
2019-02-26T23:13:43.812Z,44.36
2019-02-26T23:16:51.929Z,43.59
2019-02-26T23:19:57.784Z,43.39
2019-02-26T23:23:03.872Z,42.88
2019-02-26T23:26:09.877Z,42.79
2019-02-26T23:29:16.054Z,42.53
2019-02-26T23:32:23.546Z,42.41
2019-02-26T23:35:29.523Z,42.19
2019-02-26T23:38:35.277Z,41.93
2019-02-26T23:41:41.131Z,41.98
2019-02-26T23:44:50.849Z,42.32
2019-02-26T23:47:54.597Z,42.35
2019-02-26T23:51:00.525Z,42.31
2019-02-26T23:54:07.355Z,42.23
2019-02-26T23:57:13.945Z,42.22
